Etusivu
METAR-TAF:

METAR-TAF

Lentoasemat :

Makkovik, Newfoundland ja Labrador, Kanada

Leveyspiiri: 55-05N, Pituuspiiri: 059-11W, korkeus merenpinnasta: 71 m

Tämänhetkinen sää

Tämä raportti tehtiin 29 minuuttia sitten, kello 20.00 UTC
Tuuli 28 kn luoteesta puuskistuen 35 kn:hen
Lämpötila -5°C
Kosteus 93%
Ilmanpaine 997 hPa
Näkyvyys: 1.2 km
Pilvistä 400 ft:n korkeudessa
heikkoa lumisadetta

METAR: CYFT 072000Z 31028G35KT 3/4SM -SN OVC004 M05/M06 A2944 RMK ST8 /S01/ LAST STFD OBS/NEXT080900Z SLP976

Aika: 17:29 (20:29 UTC)


TAF: puuttuu

Säähavainnot ja -ennusteet yli 4000 lentoasemalta (METAR- ja TAF-raportit).

Käytössä olevat sääasemat on merkitty karttaan keltaisilla ja punaisilla pisteillä.

Aseta hiiri pisteen päälle nähdäksesi sääaseman nimen.

Klikkaa sitten nähdäksesi säähavainnot ja -ennusteet.

Kartan vaihtaminen: klikkaa mustalla rastilla varustettuja vihreitä pisteitä, niin voit zoomata sisään; viivalla varustettua vihreää pistettä, niin voit zoomata ulos tai vihreitä nuolia, niin pääset viereisille kartoille.


METAR-TAF: